• Join FlightAware (Why Join?)
  • Login
  • US Flag 
08:08AM EDT


 

Airport Tracker/Info


-or-


 

Live Flight TrackerFlight Track Log ✈ N600TR ✈ 11-Aug-2013 ✈ KBTR - KATL

Flight Track Log - Related Links

Times and Time Zones

All times are in EDT time to prevent confusion due to time zone crossing. See the N600TR flight status page for this flight to view local times or setup timezone preferences in your user account.

Time Position Orientation Groundspeed Altitude Reporting Facility
EDT Latitude Longitude Course Direction KTS MPH feet Rate Location/Type
05:34PM 30.4286 -91.2219 128° Southeast 239 275 4,100  Level Houston Center
05:35PM 30.7024 -90.8123 133° Southeast  Level Estimated
05:35PM 30.3853 -91.1539 126° Southeast 270 311 6,700  Level Houston Center
05:36PM 30.7587 -90.6995 120° Southeast  Level Estimated
05:36PM 30.3511 -91.0531 111° Southeast 305 351 9,300  Level Houston Center
05:37PM 30.6483 -90.6765 170° South  Level FlightAware Approximate
05:37PM 30.3581 -90.9517 85° East 316 364 11,300  Level Houston Center
05:38PM 30.7062 -90.5648 123° Southeast  Level Estimated
05:38PM 30.3889 -90.8475 71° East 342 394 12,500  Level Houston Center
05:39PM 30.7639 -90.4531 128° Southeast  Level Estimated
05:39PM 30.4175 -90.7308 74° East 377 434 13,600  Level Houston Center
05:40PM 30.4564 -90.6058 70° East 403 464 15,900 2,100 Climbing Houston Center
05:41PM 30.4992 -90.4886 67° East 398 458 17,700 1,560 Climbing Houston Center
05:42PM 30.5522 -90.3803 60° Northeast 412 474 19,000 1,380 Climbing Houston Center
05:43PM 30.6211 -90.2375 61° Northeast 418 481 20,700 1,380 Climbing Houston Center
05:44PM 30.6758 -90.1144 63° Northeast 426 490 22,100 1,200 Climbing Houston Center
05:45PM 30.7269 -90.0108 60° Northeast 433 498 23,000 1,080 Climbing Houston Center
05:46PM 30.7953 -89.8650 61° Northeast 449 517 24,400 1,080 Climbing Houston Center
05:47PM 30.8519 -89.7461 61° Northeast 454 522 25,200 1,080 Climbing Houston Center
05:48PM 30.9247 -89.6033 59° Northeast 451 519 26,800 1,320 Climbing Houston Center
05:49PM 30.9856 -89.4783 60° Northeast 443 510 28,300 1,020 Climbing Houston Center
05:50PM 31.0472 -89.3528 60° Northeast 444 511 29,000 240 Climbing Houston Center
05:51PM 31.1203 -89.1922 62° Northeast 467 537 28,900 -60 Descending Houston Center
05:52PM 31.1839 -89.0536 62° Northeast 482 555 28,900  Level Houston Center
05:53PM 31.2503 -88.9167 60° Northeast 483 556 28,900  Level Houston Center
05:54PM 31.3264 -88.7706 59° Northeast 476 548 29,000  Climbing Houston Center
05:56PM 31.3967 -88.6375 58° Northeast 476 548 29,000  Level Houston Center
05:57PM 31.4653 -88.5047 59° Northeast 472 543 29,000  Level Houston Center
05:58PM 31.5336 -88.3700 59° Northeast 474 545 29,000  Level Houston Center
05:59PM 31.6033 -88.2342 59° Northeast 480 552 29,000  Level Houston Center
06:00PM 31.6981 -88.1258 44° Northeast 480 552 29,000  Level Houston Center
06:01PM 31.8069 -88.0431 33° Northeast 466 536 29,000  Level Houston Center
06:02PM 31.9061 -87.9581 36° Northeast 445 512 29,000  Level Houston Center
06:03PM 31.9856 -87.8075 58° Northeast 449 517 29,000  Level Houston Center
06:04PM 32.0519 -87.6800 58° Northeast 440 506 29,000  Level Atlanta Center
06:05PM 32.1036 -87.5572 64° Northeast 453 521 29,000  Level Atlanta Center
06:06PM 32.1656 -87.4247 61° Northeast 458 527 29,000  Level Atlanta Center
06:07PM 32.2275 -87.2969 60° Northeast 453 521 29,000  Level Atlanta Center
06:08PM 32.2914 -87.1667 60° Northeast 448 516 29,000  Level Atlanta Center
06:09PM 32.3550 -87.0411 59° Northeast 448 516 29,000  Level Atlanta Center
06:10PM 32.4186 -86.9103 60° Northeast 448 516 29,000  Level Atlanta Center
06:11PM 32.4886 -86.7722 59° Northeast 459 528 29,000 -180 Level Atlanta Center
06:12PM 32.5567 -86.6192 62° Northeast 464 534 28,700 -2,220 Descending Atlanta Center
06:13PM 32.6117 -86.4800 65° Northeast 469 540 24,600 -2,340 Descending Atlanta Center
06:14PM 32.6456 -86.3406 74° East 454 522 24,100 -360 Descending Atlanta Center
06:15PM 32.6942 -86.2011 67° East 446 513 23,900 -300 Descending Atlanta Center
06:16PM 32.7422 -86.0639 67° East 441 507 23,500 -900 Descending Atlanta Center
06:17PM 32.7947 -85.9267 65° Northeast 446 513 22,100 -1,560 Descending Atlanta Center
06:18PM 32.8489 -85.7869 65° Northeast 453 521 20,400 -1,440 Descending Atlanta Center
06:19PM 32.8986 -85.6519 66° East 453 521 19,300 -720 Descending Atlanta Center
06:20PM 32.9483 -85.5242 65° Northeast 441 507 19,000 -180 Descending Atlanta Center
06:21PM 32.9894 -85.3861 70° East 435 501 19,000 -600 Level Atlanta Center
06:22PM 33.0306 -85.2481 70° East 440 506 17,800 -1,680 Descending Atlanta Center
06:23PM 33.0839 -85.1322 61° Northeast 409 471 15,700 -1,920 Descending Atlanta Center
06:24PM 33.1744 -85.0439 39° Northeast 398 458 14,000 -1,200 Descending Atlanta Center
06:25PM 33.2564 -84.9531 43° Northeast 398 458 13,300 -900 Descending Atlanta Center
06:26PM 33.3303 -84.8544 48° Northeast 393 452 12,300 -660 Descending Atlanta Center
06:27PM 33.3936 -84.7503 54° Northeast 393 452 12,000 -180 Descending Atlanta Center
06:28PM 33.4650 -84.6439 51° Northeast 393 452 12,000  Level Atlanta Center
06:29PM 33.5219 -84.5597 51° Northeast 380 437 12,000 -300 Level Atlanta Center
06:30PM 33.5472 -84.4675 72° East 327 376 11,400 -1,020 Descending Atlanta Center
06:31PM 33.5494 -84.3803 88° East 278 320 10,000 -2,100 Descending Atlanta Center
06:32PM 33.5500 -84.3000 90° East 242 278 7,700 -2,700 Descending Atlanta TRACON
06:33PM 33.5667 -84.2167 76° East 259 298 5,200 -2,040 Descending Atlanta TRACON
06:34PM 33.6000 -84.2500 320° Northwest 217 250 3,700 -1,200 Descending Atlanta TRACON
06:35PM 33.6167 -84.3167 287° West 188 216 2,800 -960 Descending Atlanta TRACON
06:36PM 33.6167 -84.3667 270° West 150 173 1,800 -1,020 Descending Atlanta TRACON